Remer, Minnesota
Current Conditions -  °F | °C
As of 12:36 AM on Friday 19 Dec 2014 (Local Time) from KXVG Reporting Station
Overcast Overcast  
Wind Chill:   Ceiling: 800
Heat Index: 18°   Visibility: 10mi
Dew Point: 16°   Wind: 7mph
Humidity: 93%   Direction: 160°SSE
Pressure: 30.2"   Gusts: NA
Location:  47.06°N, 93.92°W
Report Text: KXVG 190636Z AUTO 16006KT 10SM OVC008 M08/M09 A3020 RMK AO2
Loading
Personal Weather Stations






























Interactive Weather Map New forecast layout! Learn more

10-Day Weather Forecast

Advertisements
Track Severe Weather on mobile